createdAt,value
2022-08-25T00:00:21.526Z,2.20
2022-08-25T00:02:55.169Z,2.17
2022-08-25T00:05:29.417Z,1.98
2022-08-25T00:08:01.542Z,2.63
2022-08-25T00:10:31.116Z,2.03
2022-08-25T00:12:59.943Z,1.90
2022-08-25T00:15:32.179Z,2.22
2022-08-25T00:18:01.614Z,2.42
2022-08-25T00:20:31.448Z,2.42
2022-08-25T00:22:59.842Z,2.30
2022-08-25T00:25:28.319Z,2.40
2022-08-25T00:27:57.260Z,2.33
2022-08-25T00:30:25.698Z,2.47
2022-08-25T00:32:55.258Z,2.53
2022-08-25T00:35:27.223Z,2.40
2022-08-25T00:37:57.177Z,2.20
2022-08-25T00:40:28.329Z,2.53
2022-08-25T00:42:57.277Z,2.40
2022-08-25T00:45:26.415Z,2.40
2022-08-25T00:47:59.769Z,4.35
2022-08-25T00:50:29.925Z,2.72
2022-08-25T00:53:02.499Z,2.38
2022-08-25T00:55:36.141Z,2.42
2022-08-25T00:58:13.994Z,2.50
2022-08-25T01:00:46.840Z,2.40
2022-08-25T01:03:15.267Z,2.50
2022-08-25T01:05:46.509Z,2.42
2022-08-25T01:08:21.142Z,2.08
2022-08-25T01:10:51.452Z,2.60
2022-08-25T01:13:25.697Z,2.40
2022-08-25T01:15:57.205Z,2.60
2022-08-25T01:18:25.897Z,2.60
2022-08-25T01:20:56.720Z,2.10
2022-08-25T01:23:26.313Z,2.30
2022-08-25T01:26:03.683Z,2.30
2022-08-25T01:28:32.487Z,2.55
2022-08-25T01:31:00.992Z,2.45
2022-08-25T01:33:29.612Z,2.88
2022-08-25T01:35:59.328Z,2.58
2022-08-25T01:38:27.810Z,2.60
2022-08-25T01:40:56.115Z,2.63
2022-08-25T01:43:38.056Z,3.13
2022-08-25T01:46:06.643Z,3.13
2022-08-25T01:48:35.669Z,2.78
2022-08-25T01:51:05.705Z,2.80
2022-08-25T01:53:34.567Z,2.80
2022-08-25T01:56:11.399Z,3.20
2022-08-25T01:58:45.951Z,3.03
2022-08-25T02:01:17.779Z,3.60
2022-08-25T02:03:49.867Z,3.00
2022-08-25T02:06:29.808Z,3.17
2022-08-25T02:09:02.100Z,3.22
2022-08-25T02:11:30.733Z,3.58
2022-08-25T02:13:59.944Z,3.45
2022-08-25T02:16:32.457Z,3.13
2022-08-25T02:19:01.635Z,3.22
2022-08-25T02:21:32.479Z,3.22
2022-08-25T02:24:01.278Z,3.30
2022-08-25T02:26:30.490Z,3.05
2022-08-25T02:28:58.810Z,3.30
2022-08-25T02:31:27.693Z,3.30
2022-08-25T02:33:57.090Z,4.53
2022-08-25T02:36:25.744Z,4.93
2022-08-25T02:38:55.438Z,3.42
2022-08-25T02:41:31.510Z,3.22
2022-08-25T02:44:00.845Z,3.60
2022-08-25T02:46:31.077Z,3.20
2022-08-25T02:48:59.723Z,3.25
2022-08-25T02:51:30.140Z,3.30
2022-08-25T02:54:03.059Z,3.30
2022-08-25T02:56:32.855Z,3.50
2022-08-25T02:59:01.891Z,3.38
2022-08-25T03:01:32.292Z,3.80
2022-08-25T03:04:02.728Z,3.45
2022-08-25T03:06:31.833Z,3.42
2022-08-25T03:09:01.702Z,3.50
2022-08-25T03:11:30.227Z,3.75
2022-08-25T03:13:58.767Z,3.88
2022-08-25T03:16:28.081Z,3.75
2022-08-25T03:18:57.926Z,3.40
2022-08-25T03:21:27.071Z,3.80
2022-08-25T03:23:56.510Z,3.55
2022-08-25T03:26:43.700Z,3.88
2022-08-25T03:29:13.770Z,3.78
2022-08-25T03:31:44.702Z,3.78
2022-08-25T03:34:13.368Z,3.60
2022-08-25T03:36:41.994Z,3.53
2022-08-25T03:39:10.652Z,6.57
2022-08-25T03:41:41.232Z,4.95
2022-08-25T03:44:10.583Z,4.95
2022-08-25T03:46:43.167Z,5.53
2022-08-25T03:49:16.169Z,6.60
2022-08-25T03:51:48.379Z,5.35
2022-08-25T03:54:18.440Z,4.03
2022-08-25T03:56:48.132Z,4.38
2022-08-25T03:59:16.774Z,4.40
2022-08-25T04:01:50.271Z,4.25
2022-08-25T04:04:21.138Z,4.55
2022-08-25T04:06:49.467Z,5.03
2022-08-25T04:09:17.757Z,4.53
2022-08-25T04:11:47.451Z,4.00
2022-08-25T04:14:21.058Z,4.13
2022-08-25T04:16:49.426Z,5.55
2022-08-25T04:19:17.808Z,4.28
2022-08-25T04:21:46.194Z,4.80
2022-08-25T04:24:15.438Z,4.60
2022-08-25T04:26:49.708Z,4.13
2022-08-25T04:29:23.547Z,5.03
2022-08-25T04:31:53.495Z,4.60
2022-08-25T04:34:29.966Z,4.22
2022-08-25T04:37:01.765Z,4.10
2022-08-25T04:39:30.923Z,4.20
2022-08-25T04:42:01.200Z,8.25
2022-08-25T04:44:30.572Z,8.60
2022-08-25T04:46:59.435Z,5.68
2022-08-25T04:49:28.360Z,5.00
2022-08-25T04:51:57.579Z,5.45
2022-08-25T04:54:26.083Z,5.35
2022-08-25T04:56:58.394Z,6.20
2022-08-25T04:59:29.549Z,5.90
2022-08-25T05:02:02.258Z,5.22
2022-08-25T05:04:32.100Z,5.05
2022-08-25T05:07:01.147Z,4.53
2022-08-25T05:09:32.266Z,6.10
2022-08-25T05:12:02.264Z,5.72
2022-08-25T05:14:33.159Z,5.20
2022-08-25T05:17:02.117Z,5.13
2022-08-25T05:19:30.519Z,4.97
2022-08-25T05:21:58.850Z,5.30
2022-08-25T05:24:27.899Z,5.32
2022-08-25T05:26:56.548Z,5.03
2022-08-25T05:29:25.239Z,4.82
2022-08-25T05:31:55.191Z,4.80
2022-08-25T05:34:24.915Z,4.95
2022-08-25T05:36:53.295Z,5.47
2022-08-25T05:39:21.577Z,5.70
2022-08-25T05:41:49.989Z,5.30
2022-08-25T05:44:21.145Z,4.60
2022-08-25T05:46:51.129Z,4.97
2022-08-25T05:49:21.208Z,5.10
2022-08-25T05:51:49.734Z,4.03
2022-08-25T05:54:18.208Z,4.40
2022-08-25T05:56:46.690Z,4.30
2022-08-25T05:59:15.343Z,5.32
2022-08-25T06:02:01.608Z,5.70
2022-08-25T06:04:31.340Z,5.13
2022-08-25T06:06:59.672Z,5.45
2022-08-25T06:09:28.172Z,5.70
2022-08-25T06:11:56.526Z,5.55
2022-08-25T06:14:25.522Z,5.35
2022-08-25T06:16:54.131Z,6.72
2022-08-25T06:19:23.249Z,5.75
2022-08-25T06:21:56.608Z,6.80
2022-08-25T06:24:26.430Z,6.95
2022-08-25T06:26:56.086Z,6.18
2022-08-25T06:29:24.734Z,7.10
2022-08-25T06:31:53.537Z,5.05
2022-08-25T06:34:23.886Z,5.70
2022-08-25T06:36:53.277Z,6.15
2022-08-25T06:39:24.012Z,5.38
2022-08-25T06:41:53.843Z,5.90
2022-08-25T06:44:22.839Z,6.75
2022-08-25T06:46:51.791Z,6.05
2022-08-25T06:49:20.283Z,6.00
2022-08-25T06:51:49.536Z,5.63
2022-08-25T06:54:17.962Z,6.30
2022-08-25T06:56:49.607Z,5.70
2022-08-25T06:59:19.000Z,6.43
2022-08-25T07:01:49.679Z,6.10
2022-08-25T07:04:18.707Z,6.53
2022-08-25T07:06:47.192Z,6.15
2022-08-25T07:09:16.297Z,5.82
2022-08-25T07:11:47.175Z,5.80
2022-08-25T07:14:18.329Z,5.65
2022-08-25T07:16:50.437Z,4.90
2022-08-25T07:19:21.408Z,5.18
2022-08-25T07:21:54.241Z,5.35
2022-08-25T07:24:23.876Z,4.95
2022-08-25T07:26:54.209Z,6.18
2022-08-25T07:32:13.000Z,5.63
2022-08-25T07:34:59.272Z,5.35
2022-08-25T07:37:47.835Z,5.15
2022-08-25T07:40:19.854Z,6.00
2022-08-25T07:42:49.990Z,6.03
2022-08-25T07:45:20.761Z,5.90
2022-08-25T07:47:52.077Z,11.48
2022-08-25T07:50:21.797Z,5.80
2022-08-25T07:52:55.271Z,5.32
2022-08-25T07:55:24.637Z,5.95
2022-08-25T07:58:10.991Z,5.45
2022-08-25T08:00:42.359Z,5.05
2022-08-25T08:03:19.906Z,4.88
2022-08-25T08:05:59.895Z,5.10
2022-08-25T08:08:28.788Z,5.57
2022-08-25T08:11:05.398Z,6.53
2022-08-25T08:13:40.773Z,5.22
2022-08-25T08:16:10.874Z,5.45
2022-08-25T08:18:42.474Z,5.13
2022-08-25T08:21:14.184Z,5.50
2022-08-25T08:23:49.288Z,4.80
2022-08-25T08:26:18.491Z,5.05
2022-08-25T08:28:51.921Z,4.90
2022-08-25T08:31:21.645Z,5.28
2022-08-25T08:33:52.155Z,5.70
2022-08-25T08:36:22.722Z,5.07
2022-08-25T08:38:54.708Z,5.60
2022-08-25T08:42:18.495Z,5.80
2022-08-25T08:45:18.200Z,4.90
2022-08-25T08:48:02.878Z,5.20
2022-08-25T08:50:44.539Z,5.60
2022-08-25T08:53:19.673Z,5.40
2022-08-25T08:55:54.523Z,5.40
2022-08-25T08:58:28.061Z,4.57
2022-08-25T09:01:01.812Z,5.00
2022-08-25T09:06:13.691Z,4.75
2022-08-25T09:08:45.021Z,5.05
2022-08-25T09:11:24.841Z,4.78
2022-08-25T09:14:11.065Z,4.78
2022-08-25T09:16:58.289Z,4.78
2022-08-25T09:19:47.177Z,4.72
2022-08-25T09:22:35.430Z,5.88
2022-08-25T09:25:18.782Z,4.55
2022-08-25T09:28:02.991Z,5.13
2022-08-25T09:30:42.031Z,4.78
2022-08-25T09:33:20.989Z,4.25
2022-08-25T09:35:53.682Z,4.82
2022-08-25T09:38:22.824Z,4.50
2022-08-25T09:40:55.615Z,4.75
2022-08-25T09:43:32.065Z,4.68
2022-08-25T09:46:03.855Z,4.70
2022-08-25T09:48:40.868Z,4.32
2022-08-25T09:51:21.242Z,4.40
2022-08-25T09:53:56.601Z,4.60
2022-08-25T09:56:27.864Z,4.90
2022-08-25T09:59:03.120Z,4.45
2022-08-25T10:01:34.667Z,4.95
2022-08-25T10:04:10.772Z,4.57
2022-08-25T10:06:49.106Z,3.80
2022-08-25T10:09:30.401Z,4.07
2022-08-25T10:12:04.824Z,4.28
2022-08-25T10:14:38.803Z,3.90
2022-08-25T10:17:24.650Z,4.20
2022-08-25T10:20:17.673Z,4.07
2022-08-25T10:22:48.323Z,4.47
2022-08-25T10:25:26.521Z,4.47
2022-08-25T10:28:08.265Z,4.10
2022-08-25T10:30:56.252Z,4.50
2022-08-25T10:33:36.331Z,4.35
2022-08-25T10:36:15.398Z,13.98
2022-08-25T10:38:55.654Z,4.72
2022-08-25T10:41:49.369Z,4.55
2022-08-25T10:44:59.075Z,4.47
2022-08-25T10:47:55.434Z,4.40
2022-08-25T10:50:30.547Z,4.28
2022-08-25T10:53:16.949Z,4.43
2022-08-25T10:55:57.576Z,4.50
2022-08-25T10:59:04.594Z,3.80
2022-08-25T11:01:48.838Z,4.28
2022-08-25T11:04:29.853Z,6.35
2022-08-25T11:07:05.871Z,8.27
2022-08-25T11:09:41.726Z,4.90
2022-08-25T11:12:15.360Z,4.65
2022-08-25T11:14:51.243Z,4.25
2022-08-25T11:17:26.037Z,4.47
2022-08-25T11:19:58.968Z,4.10
2022-08-25T11:22:33.435Z,4.35
2022-08-25T11:25:13.025Z,4.10
2022-08-25T11:27:53.524Z,3.58
2022-08-25T11:30:23.053Z,4.05
2022-08-25T11:32:56.757Z,4.03
2022-08-25T11:35:32.375Z,4.07
2022-08-25T11:38:26.425Z,4.32
2022-08-25T11:41:11.135Z,3.33
2022-08-25T11:46:39.316Z,3.55
2022-08-25T11:49:32.546Z,3.60
2022-08-25T11:52:02.958Z,3.60
2022-08-25T11:54:38.775Z,3.20
2022-08-25T11:57:22.786Z,3.22
2022-08-25T12:00:11.317Z,3.10
2022-08-25T12:02:43.660Z,3.35
2022-08-25T12:05:47.653Z,3.20
2022-08-25T12:08:33.712Z,3.10
2022-08-25T12:11:10.953Z,3.10
2022-08-25T12:13:48.411Z,3.20
2022-08-25T12:16:43.535Z,3.10
2022-08-25T12:19:32.908Z,2.92
2022-08-25T12:22:56.697Z,3.10
2022-08-25T12:25:50.299Z,3.22
2022-08-25T12:28:58.869Z,2.95
2022-08-25T12:32:04.645Z,3.00
2022-08-25T12:34:54.712Z,2.58
2022-08-25T12:37:25.583Z,2.70
2022-08-25T12:40:01.446Z,2.50
2022-08-25T12:42:33.535Z,2.88
2022-08-25T12:45:35.236Z,2.83
2022-08-25T12:48:56.823Z,2.83
2022-08-25T12:51:28.419Z,2.70
2022-08-25T12:54:12.104Z,2.30
2022-08-25T12:56:49.263Z,2.03
2022-08-25T12:59:21.417Z,2.15
2022-08-25T13:02:11.900Z,2.20
2022-08-25T13:05:04.708Z,2.25
2022-08-25T13:08:15.109Z,2.80
2022-08-25T13:10:50.610Z,2.03
2022-08-25T13:13:36.880Z,2.10
2022-08-25T13:16:10.799Z,1.95
2022-08-25T13:18:41.548Z,2.17
2022-08-25T13:21:18.141Z,2.13
2022-08-25T13:23:49.782Z,2.33
2022-08-25T13:26:25.597Z,2.38
2022-08-25T13:28:59.443Z,2.00
2022-08-25T13:31:29.874Z,2.38
2022-08-25T13:34:03.266Z,1.90
2022-08-25T13:37:01.340Z,1.90
2022-08-25T13:39:55.096Z,2.00
2022-08-25T13:42:27.415Z,1.92
2022-08-25T13:44:57.639Z,2.38
2022-08-25T13:47:43.842Z,2.00
2022-08-25T13:50:23.155Z,1.77
2022-08-25T13:52:58.225Z,2.20
2022-08-25T13:55:38.222Z,2.58
2022-08-25T13:58:24.195Z,2.28
2022-08-25T14:01:23.114Z,2.03
2022-08-25T14:07:14.843Z,2.10
2022-08-25T14:09:52.512Z,2.28
2022-08-25T14:12:37.821Z,2.67
2022-08-25T14:15:13.876Z,2.30
2022-08-25T14:20:25.586Z,2.03
2022-08-25T14:23:00.215Z,2.22
2022-08-25T14:25:31.845Z,2.10
2022-08-25T14:28:07.330Z,2.38
2022-08-25T14:30:41.015Z,2.20
2022-08-25T14:33:13.310Z,2.20
2022-08-25T14:35:44.734Z,2.30
2022-08-25T14:38:15.515Z,2.17
2022-08-25T14:40:45.742Z,2.58
2022-08-25T14:43:14.849Z,2.60
2022-08-25T14:45:46.438Z,2.60
2022-08-25T14:48:26.119Z,3.17
2022-08-25T14:50:57.663Z,2.40
2022-08-25T14:53:28.717Z,2.30
2022-08-25T14:55:59.106Z,2.40
2022-08-25T14:58:33.888Z,2.17
2022-08-25T15:01:06.133Z,2.30
2022-08-25T15:03:42.823Z,2.20
2022-08-25T15:06:18.677Z,2.50
2022-08-25T15:09:05.872Z,2.45
2022-08-25T15:11:35.257Z,2.15
2022-08-25T15:14:03.948Z,2.25
2022-08-25T15:16:37.866Z,2.28
2022-08-25T15:19:08.231Z,2.63
2022-08-25T15:21:37.289Z,2.00
2022-08-25T15:24:08.734Z,2.25
2022-08-25T15:26:44.495Z,2.20
2022-08-25T15:29:12.954Z,2.20
2022-08-25T15:31:41.519Z,2.00
2022-08-25T15:34:11.822Z,2.00
2022-08-25T15:36:41.550Z,2.05
2022-08-25T15:39:12.591Z,2.67
2022-08-25T15:41:42.817Z,3.35
2022-08-25T15:44:11.441Z,1.98
2022-08-25T15:46:46.961Z,1.95
2022-08-25T15:49:23.087Z,1.90
2022-08-25T15:51:54.349Z,1.80
2022-08-25T15:54:26.761Z,2.00
2022-08-25T15:56:56.597Z,2.60
2022-08-25T15:59:26.017Z,3.60
2022-08-25T16:01:56.715Z,2.85
2022-08-25T16:04:28.791Z,2.70
2022-08-25T16:06:57.172Z,2.40
2022-08-25T16:09:28.624Z,2.17
2022-08-25T16:12:03.936Z,1.90
2022-08-25T16:14:32.547Z,1.90
2022-08-25T16:17:01.107Z,2.08
2022-08-25T16:19:30.393Z,1.98
2022-08-25T16:22:00.140Z,1.92
2022-08-25T16:24:30.004Z,1.95
2022-08-25T16:27:11.771Z,1.88
2022-08-25T16:29:41.924Z,2.05
2022-08-25T16:32:11.592Z,2.03
2022-08-25T16:34:43.211Z,1.80
2022-08-25T16:37:13.467Z,1.80
2022-08-25T16:39:45.569Z,1.83
2022-08-25T16:42:15.207Z,1.90
2022-08-25T16:44:43.590Z,1.90
2022-08-25T16:47:14.269Z,2.00
2022-08-25T16:49:47.138Z,2.17
2022-08-25T16:52:40.575Z,1.92
2022-08-25T16:55:13.583Z,2.00
2022-08-25T16:57:45.299Z,1.63
2022-08-25T17:00:21.798Z,2.15
2022-08-25T17:02:54.211Z,1.92
2022-08-25T17:05:22.896Z,1.92
2022-08-25T17:08:05.700Z,1.90
2022-08-25T17:10:38.416Z,2.00
2022-08-25T17:13:07.862Z,1.90
2022-08-25T17:15:40.613Z,2.30
2022-08-25T17:18:09.162Z,2.25
2022-08-25T17:20:39.889Z,2.20
2022-08-25T17:23:12.774Z,1.67
2022-08-25T17:25:44.181Z,2.03
2022-08-25T17:28:13.561Z,2.05
2022-08-25T17:30:43.325Z,1.77
2022-08-25T17:33:12.290Z,1.90
2022-08-25T17:35:42.777Z,2.65
2022-08-25T17:38:13.025Z,2.40
2022-08-25T17:40:43.248Z,3.00
2022-08-25T17:43:12.676Z,2.47
2022-08-25T17:45:41.951Z,2.22
2022-08-25T17:48:13.880Z,2.40
2022-08-25T17:50:42.616Z,2.50
2022-08-25T17:53:12.278Z,2.30
2022-08-25T17:55:43.541Z,2.22
2022-08-25T17:58:17.062Z,2.10
2022-08-25T18:00:47.030Z,2.38
2022-08-25T18:03:15.324Z,1.95
2022-08-25T18:05:45.014Z,2.20
2022-08-25T18:08:14.617Z,2.00
2022-08-25T18:10:44.679Z,2.13
2022-08-25T18:13:13.639Z,2.00
2022-08-25T18:15:43.877Z,2.20
2022-08-25T18:18:12.740Z,2.00
2022-08-25T18:20:41.696Z,2.10
2022-08-25T18:23:12.569Z,2.40
2022-08-25T18:25:42.972Z,2.45
2022-08-25T18:28:13.104Z,2.20
2022-08-25T18:30:43.114Z,2.60
2022-08-25T18:33:12.101Z,2.60
2022-08-25T18:35:40.508Z,2.55
2022-08-25T18:38:27.732Z,2.22
2022-08-25T18:40:58.242Z,2.30
2022-08-25T18:43:31.910Z,2.40
2022-08-25T18:46:04.680Z,2.35
2022-08-25T18:48:34.431Z,2.70
2022-08-25T18:51:03.040Z,3.33
2022-08-25T18:53:37.461Z,4.90
2022-08-25T18:56:19.184Z,3.30
2022-08-25T18:58:49.508Z,2.90
2022-08-25T19:01:20.543Z,2.83
2022-08-25T19:03:50.613Z,2.63
2022-08-25T19:06:20.754Z,2.75
2022-08-25T19:08:49.602Z,2.78
2022-08-25T19:11:22.314Z,2.55
2022-08-25T19:13:52.640Z,2.53
2022-08-25T19:16:34.642Z,2.50
2022-08-25T19:19:06.397Z,2.72
2022-08-25T19:21:38.610Z,2.57
2022-08-25T19:24:08.153Z,2.83
2022-08-25T19:26:38.166Z,2.30
2022-08-25T19:29:14.960Z,2.95
2022-08-25T19:31:46.614Z,2.60
2022-08-25T19:34:21.459Z,2.35
2022-08-25T19:36:50.781Z,2.45
2022-08-25T19:39:19.975Z,2.58
2022-08-25T19:41:49.016Z,2.83
2022-08-25T19:44:19.273Z,2.80
2022-08-25T19:46:47.851Z,2.90
2022-08-25T19:49:26.160Z,7.75
2022-08-25T19:51:57.139Z,5.20
2022-08-25T19:54:30.232Z,2.83
2022-08-25T19:56:59.529Z,3.13
2022-08-25T19:59:40.435Z,2.83
2022-08-25T20:02:16.125Z,2.90
2022-08-25T20:04:49.593Z,2.88
2022-08-25T20:09:48.190Z,2.55
2022-08-25T20:12:17.346Z,2.85
2022-08-25T20:14:48.192Z,3.22
2022-08-25T20:17:23.868Z,2.97
2022-08-25T20:19:55.916Z,2.97
2022-08-25T20:22:26.828Z,2.90
2022-08-25T20:24:57.893Z,2.90
2022-08-25T20:27:34.519Z,2.83
2022-08-25T20:30:08.944Z,2.50
2022-08-25T20:32:37.801Z,2.38
2022-08-25T20:35:09.924Z,2.90
2022-08-25T20:37:42.076Z,2.88
2022-08-25T20:40:12.403Z,3.17
2022-08-25T20:42:41.437Z,3.45
2022-08-25T20:45:17.800Z,3.50
2022-08-25T20:47:46.212Z,3.00
2022-08-25T20:50:43.023Z,3.40
2022-08-25T20:53:13.714Z,4.15
2022-08-25T20:55:43.740Z,3.85
2022-08-25T20:58:12.691Z,2.90
2022-08-25T21:00:44.690Z,3.00
2022-08-25T21:03:13.618Z,3.40
2022-08-25T21:05:43.886Z,3.38
2022-08-25T21:08:12.931Z,2.97
2022-08-25T21:10:41.781Z,3.25
2022-08-25T21:13:10.354Z,3.08
2022-08-25T21:15:40.450Z,3.78
2022-08-25T21:18:10.358Z,3.33
2022-08-25T21:20:40.294Z,3.67
2022-08-25T21:23:08.829Z,3.35
2022-08-25T21:25:42.259Z,3.63
2022-08-25T21:28:10.788Z,3.10
2022-08-25T21:30:44.692Z,3.00
2022-08-25T21:33:17.404Z,2.90
2022-08-25T21:35:47.183Z,2.92
2022-08-25T21:38:16.169Z,2.95
2022-08-25T21:40:45.069Z,4.03
2022-08-25T21:43:13.689Z,4.03
2022-08-25T21:45:46.764Z,4.13
2022-08-25T21:48:17.624Z,3.83
2022-08-25T21:50:46.377Z,4.38
2022-08-25T21:53:14.846Z,4.15
2022-08-25T21:55:45.205Z,3.63
2022-08-25T21:58:13.702Z,3.65
2022-08-25T22:00:44.583Z,3.35
2022-08-25T22:03:13.206Z,3.97
2022-08-25T22:05:43.226Z,3.35
2022-08-25T22:08:14.349Z,3.00
2022-08-25T22:10:45.543Z,3.45
2022-08-25T22:13:14.199Z,3.40
2022-08-25T22:15:42.905Z,3.22
2022-08-25T22:18:11.467Z,4.05
2022-08-25T22:20:41.427Z,9.88
2022-08-25T22:23:20.485Z,4.28
2022-08-25T22:25:49.443Z,3.67
2022-08-25T22:28:20.011Z,3.33
2022-08-25T22:30:49.153Z,3.33
2022-08-25T22:33:18.156Z,3.45
2022-08-25T22:35:47.066Z,3.50
2022-08-25T22:38:17.205Z,3.50
2022-08-25T22:40:46.453Z,3.17
2022-08-25T22:43:15.053Z,3.67
2022-08-25T22:45:43.768Z,3.17
2022-08-25T22:48:12.368Z,3.47
2022-08-25T22:50:40.892Z,3.35
2022-08-25T22:53:09.523Z,3.60
2022-08-25T22:55:44.654Z,3.75
2022-08-25T22:58:15.964Z,3.65
2022-08-25T23:00:44.513Z,3.15
2022-08-25T23:03:13.148Z,3.00
2022-08-25T23:05:41.757Z,3.30
2022-08-25T23:08:10.251Z,3.20
2022-08-25T23:10:38.721Z,3.40
2022-08-25T23:13:08.892Z,3.47
2022-08-25T23:15:37.971Z,3.53
2022-08-25T23:18:07.763Z,3.65
2022-08-25T23:20:53.656Z,3.85
2022-08-25T23:23:22.718Z,3.30
2022-08-25T23:25:51.384Z,3.30
2022-08-25T23:28:22.084Z,3.88
2022-08-25T23:30:59.372Z,3.58
2022-08-25T23:33:28.578Z,3.72
2022-08-25T23:36:01.150Z,3.55
2022-08-25T23:38:29.745Z,3.65
2022-08-25T23:40:59.528Z,3.60
2022-08-25T23:43:29.640Z,4.00
2022-08-25T23:45:58.787Z,3.60
2022-08-25T23:48:27.736Z,3.10
2022-08-25T23:50:57.572Z,3.75
2022-08-25T23:53:26.506Z,3.78
2022-08-25T23:55:56.137Z,3.30
2022-08-25T23:58:26.027Z,3.85
